Time;durP1;ratioP1;P1;durP2;ratioP2;P2;SDS_P1;SDS_P2;PMS_P1;PMS_P2;Temp;Humidity;BMP_temperature;BMP_pressure;BME280_temperature;BME280_humidity;BME280_pressure;Samples;Min_cycle;Max_cycle;Signal;HPM_P1;HPM_P2
2022/01/03 00:01:57;;;;;;;31.47;4.97;;;;;;;;;;5044384;28;20239;-79
2022/01/03 00:04:24;;;;;;;36.90;4.63;;;;;;;;;;5040109;28;20247;-79
2022/01/03 00:06:51;;;;;;;31.90;4.47;;;;;;;;;;5047905;28;20199;-79
2022/01/03 00:09:19;;;;;;;35.97;4.83;;;;;;;;;;5048265;28;20675;-79
2022/01/03 00:11:48;;;;;;;30.60;5.33;;;;;;;;;;5036132;28;20236;-80
2022/01/03 00:14:15;;;;;;;35.17;4.97;;;;;;;;;;5030377;28;20196;-79
2022/01/03 00:16:42;;;;;;;31.47;4.53;;;;;;;;;;5040849;28;20291;-79
2022/01/03 00:19:09;;;;;;;36.17;5.57;;;;;;;;;;5050639;28;20299;-79
2022/01/03 00:21:41;;;;;;;29.33;5.10;;;;;;;;;;5050807;28;20287;-79
2022/01/03 00:24:09;;;;;;;31.10;5.10;;;;;;;;;;5047671;28;20916;-79
2022/01/03 00:26:37;;;;;;;28.47;4.80;;;;;;;;;;5037800;28;20279;-79
2022/01/03 00:29:10;;;;;;;28.07;4.57;;;;;;;;;;5050452;28;20621;-79
2022/01/03 00:31:38;;;;;;;26.20;4.43;;;;;;;;;;5053728;28;20234;-79
2022/01/03 00:34:06;;;;;;;28.63;4.10;;;;;;;;;;5051022;28;20227;-79
2022/01/03 00:36:34;;;;;;;31.43;4.53;;;;;;;;;;5046601;28;20287;-79
2022/01/03 00:39:02;;;;;;;30.00;4.20;;;;;;;;;;5047151;28;20757;-79
2022/01/03 00:41:29;;;;;;;37.07;5.70;;;;;;;;;;5052724;28;20675;-80
2022/01/03 00:43:57;;;;;;;34.97;4.83;;;;;;;;;;5034949;28;20211;-79
2022/01/03 00:46:27;;;;;;;30.87;4.60;;;;;;;;;;5050900;28;20774;-79
2022/01/03 00:48:55;;;;;;;31.00;4.57;;;;;;;;;;5043644;28;20283;-79
2022/01/03 00:51:22;;;;;;;31.57;5.23;;;;;;;;;;5045438;28;20220;-80
2022/01/03 00:53:51;;;;;;;33.47;4.57;;;;;;;;;;5052710;28;20279;-79
2022/01/03 00:56:20;;;;;;;33.83;4.50;;;;;;;;;;5043224;28;20223;-79
2022/01/03 00:58:49;;;;;;;25.40;4.57;;;;;;;;;;5035621;28;20657;-79
2022/01/03 01:01:16;;;;;;;24.70;4.10;;;;;;;;;;5042178;28;21024;-79
2022/01/03 01:03:45;;;;;;;27.10;4.87;;;;;;;;;;5039691;28;20291;-79
2022/01/03 01:06:12;;;;;;;31.17;4.50;;;;;;;;;;5047836;28;20250;-79
2022/01/03 01:08:39;;;;;;;29.17;4.13;;;;;;;;;;5034210;28;20291;-79
2022/01/03 01:11:08;;;;;;;30.67;4.77;;;;;;;;;;5052092;28;20206;-79
2022/01/03 01:13:36;;;;;;;31.70;4.87;;;;;;;;;;5052971;28;20729;-79
2022/01/03 01:16:06;;;;;;;29.27;4.20;;;;;;;;;;5049742;28;20196;-79
2022/01/03 01:18:36;;;;;;;31.27;4.67;;;;;;;;;;5047655;28;20200;-80
2022/01/03 01:21:05;;;;;;;35.03;5.00;;;;;;;;;;5033053;28;20204;-79
2022/01/03 01:23:32;;;;;;;28.93;4.77;;;;;;;;;;5045158;28;20200;-79
2022/01/03 01:28:45;;;;;;;29.67;4.27;;;;;;;;;;5052225;28;20270;-79
2022/01/03 01:31:13;;;;;;;29.70;4.60;;;;;;;;;;5043770;28;20205;-79
2022/01/03 01:33:41;;;;;;;25.67;4.37;;;;;;;;;;5049855;28;20196;-79
2022/01/03 01:36:10;;;;;;;31.20;4.40;;;;;;;;;;5046173;28;20227;-79
2022/01/03 01:38:38;;;;;;;36.77;4.60;;;;;;;;;;5043128;28;20295;-79
2022/01/03 01:41:07;;;;;;;23.83;4.30;;;;;;;;;;5052725;28;20283;-79
2022/01/03 01:43:36;;;;;;;32.80;4.77;;;;;;;;;;5041287;28;20292;-79
2022/01/03 01:46:05;;;;;;;31.53;4.20;;;;;;;;;;5035945;28;20704;-79
2022/01/03 01:48:34;;;;;;;37.53;4.70;;;;;;;;;;5031632;28;20686;-79
2022/01/03 01:51:02;;;;;;;31.20;4.83;;;;;;;;;;5042080;28;20283;-79
2022/01/03 01:53:32;;;;;;;34.47;4.40;;;;;;;;;;5051154;28;20827;-79
2022/01/03 01:56:00;;;;;;;26.37;3.97;;;;;;;;;;5039808;28;20239;-79
2022/01/03 01:58:31;;;;;;;29.50;4.57;;;;;;;;;;5040838;28;20227;-79
2022/01/03 02:01:00;;;;;;;29.93;4.10;;;;;;;;;;5043589;28;20797;-79
2022/01/03 02:03:32;;;;;;;29.33;3.70;;;;;;;;;;5040185;28;20638;-79
2022/01/03 02:06:03;;;;;;;22.97;3.80;;;;;;;;;;5051675;28;20599;-79
2022/01/03 02:08:34;;;;;;;34.63;4.83;;;;;;;;;;5034579;28;20287;-79
2022/01/03 02:11:05;;;;;;;34.27;4.37;;;;;;;;;;5042513;28;20706;-79
2022/01/03 02:13:32;;;;;;;30.97;4.13;;;;;;;;;;5043167;28;20664;-79
2022/01/03 02:16:03;;;;;;;27.20;4.17;;;;;;;;;;5044555;28;20697;-80
2022/01/03 02:18:31;;;;;;;33.43;4.10;;;;;;;;;;5038208;28;20199;-79
2022/01/03 02:21:00;;;;;;;29.57;4.00;;;;;;;;;;5046697;28;20724;-79
2022/01/03 02:23:28;;;;;;;27.23;4.37;;;;;;;;;;5045209;28;20282;-79
2022/01/03 02:25:55;;;;;;;27.13;4.07;;;;;;;;;;5039183;28;20248;-79
2022/01/03 02:28:22;;;;;;;28.00;4.23;;;;;;;;;;5040625;28;20232;-79
2022/01/03 02:30:50;;;;;;;24.40;3.70;;;;;;;;;;5041223;28;20680;-79
2022/01/03 02:33:18;;;;;;;25.33;3.73;;;;;;;;;;5043137;28;20295;-79
2022/01/03 02:35:45;;;;;;;26.90;3.63;;;;;;;;;;5042704;28;20227;-79
2022/01/03 02:38:14;;;;;;;32.93;4.10;;;;;;;;;;5042251;28;20276;-79
2022/01/03 02:40:42;;;;;;;26.53;4.33;;;;;;;;;;5047338;28;20287;-79
2022/01/03 02:43:09;;;;;;;29.07;4.30;;;;;;;;;;5047448;28;20291;-79
2022/01/03 02:45:36;;;;;;;24.87;4.10;;;;;;;;;;5038853;28;20311;-79
2022/01/03 02:48:07;;;;;;;26.07;4.20;;;;;;;;;;5039642;28;20223;-79
2022/01/03 02:50:35;;;;;;;31.57;4.40;;;;;;;;;;5039827;28;20204;-79
2022/01/03 02:53:02;;;;;;;33.93;5.67;;;;;;;;;;5043349;28;20602;-79
2022/01/03 02:55:31;;;;;;;25.87;4.13;;;;;;;;;;5042910;28;20192;-79
2022/01/03 02:58:06;;;;;;;32.07;4.30;;;;;;;;;;5042039;28;20239;-79
2022/01/03 03:00:34;;;;;;;26.97;4.47;;;;;;;;;;5039375;28;20200;-80
2022/01/03 03:03:03;;;;;;;28.80;3.87;;;;;;;;;;5039640;28;20228;-79
2022/01/03 03:05:30;;;;;;;30.67;3.70;;;;;;;;;;5044510;28;20216;-79
2022/01/03 03:07:57;;;;;;;36.40;4.47;;;;;;;;;;5043262;28;20286;-79
2022/01/03 03:10:25;;;;;;;27.40;4.13;;;;;;;;;;5041120;28;20223;-79
2022/01/03 03:12:54;;;;;;;32.03;4.80;;;;;;;;;;5040997;28;20201;-79
2022/01/03 03:15:21;;;;;;;30.20;3.67;;;;;;;;;;5036801;28;20203;-79
2022/01/03 03:17:49;;;;;;;28.70;4.00;;;;;;;;;;5031216;28;20295;-79
2022/01/03 03:20:18;;;;;;;36.77;5.00;;;;;;;;;;5040556;28;20188;-79
2022/01/03 03:22:49;;;;;;;30.83;3.83;;;;;;;;;;5048703;28;20702;-79
2022/01/03 03:25:17;;;;;;;26.87;3.63;;;;;;;;;;5045120;28;20216;-79
2022/01/03 03:27:47;;;;;;;27.73;3.87;;;;;;;;;;5035177;28;20294;-79
2022/01/03 03:30:16;;;;;;;27.43;3.93;;;;;;;;;;5039822;28;20203;-79
2022/01/03 03:32:44;;;;;;;25.03;4.30;;;;;;;;;;5050617;28;20227;-79
2022/01/03 03:35:11;;;;;;;31.37;4.10;;;;;;;;;;5034266;28;20238;-79
2022/01/03 03:37:39;;;;;;;27.57;4.13;;;;;;;;;;5033766;28;20246;-79
2022/01/03 03:40:07;;;;;;;27.00;3.73;;;;;;;;;;5040087;28;20278;-79
2022/01/03 03:42:34;;;;;;;26.53;4.40;;;;;;;;;;5036654;28;20290;-79
2022/01/03 03:45:02;;;;;;;28.00;3.80;;;;;;;;;;5050271;28;20291;-79
2022/01/03 03:47:30;;;;;;;25.13;3.70;;;;;;;;;;5049886;28;20230;-79
2022/01/03 03:49:57;;;;;;;36.57;4.67;;;;;;;;;;5044926;28;20287;-79
2022/01/03 03:52:25;;;;;;;30.23;3.83;;;;;;;;;;5048654;28;20231;-79
2022/01/03 03:54:52;;;;;;;36.07;4.43;;;;;;;;;;5038565;28;20283;-80
2022/01/03 03:57:19;;;;;;;34.17;4.83;;;;;;;;;;5040738;28;20300;-79
2022/01/03 03:59:46;;;;;;;27.37;3.80;;;;;;;;;;5034864;28;20231;-80
2022/01/03 04:02:13;;;;;;;29.03;4.07;;;;;;;;;;5052033;28;20321;-80
2022/01/03 04:04:42;;;;;;;31.53;4.13;;;;;;;;;;5054296;28;20280;-79
2022/01/03 04:07:10;;;;;;;23.33;3.73;;;;;;;;;;5051709;28;20261;-79
2022/01/03 04:09:37;;;;;;;27.73;4.13;;;;;;;;;;5044631;28;20234;-79
2022/01/03 04:12:05;;;;;;;27.07;3.77;;;;;;;;;;5048802;28;20282;-79
2022/01/03 04:14:32;;;;;;;30.67;4.17;;;;;;;;;;5054098;28;20242;-79
2022/01/03 04:16:59;;;;;;;26.60;3.53;;;;;;;;;;5042419;28;20232;-79
2022/01/03 04:19:27;;;;;;;26.83;3.90;;;;;;;;;;5049365;28;20278;-79
2022/01/03 04:21:55;;;;;;;31.20;3.73;;;;;;;;;;5053338;28;20279;-79
2022/01/03 04:24:23;;;;;;;33.00;4.17;;;;;;;;;;5035679;28;20231;-79
2022/01/03 04:26:50;;;;;;;30.10;4.20;;;;;;;;;;5045173;28;20223;-79
2022/01/03 04:29:17;;;;;;;31.23;4.13;;;;;;;;;;5040728;28;20583;-79
2022/01/03 04:31:45;;;;;;;29.67;3.90;;;;;;;;;;5040933;28;20750;-79
2022/01/03 04:34:13;;;;;;;32.77;4.47;;;;;;;;;;5045899;28;20290;-79
2022/01/03 04:36:41;;;;;;;29.20;3.47;;;;;;;;;;5045543;28;20196;-79
2022/01/03 04:39:09;;;;;;;26.30;3.63;;;;;;;;;;5044710;28;20231;-79
2022/01/03 04:41:36;;;;;;;24.33;4.13;;;;;;;;;;5053188;28;20200;-80
2022/01/03 04:44:05;;;;;;;29.80;4.60;;;;;;;;;;5052283;28;20287;-79
2022/01/03 04:46:33;;;;;;;29.93;3.80;;;;;;;;;;5053000;28;20219;-79
2022/01/03 04:49:00;;;;;;;25.60;3.13;;;;;;;;;;5051014;28;20619;-79
2022/01/03 04:51:27;;;;;;;32.73;4.27;;;;;;;;;;5033798;28;20291;-79
2022/01/03 04:53:54;;;;;;;22.77;3.33;;;;;;;;;;5033880;28;20296;-79
2022/01/03 04:56:23;;;;;;;27.60;3.70;;;;;;;;;;5049687;28;20704;-79
2022/01/03 04:58:50;;;;;;;24.40;3.53;;;;;;;;;;5041100;28;20287;-79
2022/01/03 05:01:17;;;;;;;26.43;4.33;;;;;;;;;;5052873;28;20762;-79
2022/01/03 05:03:45;;;;;;;31.97;4.20;;;;;;;;;;5038549;28;20279;-79
2022/01/03 05:06:12;;;;;;;30.33;3.97;;;;;;;;;;5040950;28;20218;-79
2022/01/03 05:08:41;;;;;;;32.43;4.70;;;;;;;;;;5032573;28;20204;-80
2022/01/03 05:11:08;;;;;;;27.27;3.97;;;;;;;;;;5040928;28;20200;-79
2022/01/03 05:13:37;;;;;;;24.70;3.43;;;;;;;;;;5046123;28;20286;-79
2022/01/03 05:16:04;;;;;;;27.07;3.77;;;;;;;;;;5048514;28;20275;-80
2022/01/03 05:18:31;;;;;;;30.13;4.20;;;;;;;;;;5049180;28;20226;-79
2022/01/03 05:20:59;;;;;;;23.53;3.53;;;;;;;;;;5038298;28;20291;-80
2022/01/03 05:23:26;;;;;;;28.23;3.93;;;;;;;;;;5042065;28;20704;-79
2022/01/03 05:25:53;;;;;;;29.17;4.07;;;;;;;;;;5048161;28;20750;-80
2022/01/03 05:28:20;;;;;;;35.00;4.03;;;;;;;;;;5037008;28;20283;-80
2022/01/03 05:30:49;;;;;;;24.33;3.70;;;;;;;;;;5048525;28;20756;-79
2022/01/03 05:33:16;;;;;;;26.63;4.17;;;;;;;;;;5048258;28;20287;-79
2022/01/03 05:35:43;;;;;;;25.67;3.80;;;;;;;;;;5040265;28;20290;-80
2022/01/03 05:38:10;;;;;;;22.83;3.03;;;;;;;;;;5048256;28;20283;-79
2022/01/03 05:40:38;;;;;;;23.07;3.47;;;;;;;;;;5035572;28;20287;-79
2022/01/03 05:43:05;;;;;;;26.93;4.37;;;;;;;;;;5032697;28;20748;-79
2022/01/03 05:45:32;;;;;;;28.23;4.13;;;;;;;;;;5042488;28;20223;-79
2022/01/03 05:48:01;;;;;;;25.67;3.63;;;;;;;;;;5038685;28;20300;-79
2022/01/03 05:50:28;;;;;;;28.70;3.17;;;;;;;;;;5032551;28;20204;-80
2022/01/03 05:52:55;;;;;;;28.43;3.97;;;;;;;;;;5040109;28;20283;-80
2022/01/03 05:55:24;;;;;;;29.73;3.90;;;;;;;;;;5034247;28;20228;-79
2022/01/03 05:57:51;;;;;;;25.33;3.70;;;;;;;;;;5037823;28;20630;-79
2022/01/03 06:00:20;;;;;;;25.20;4.30;;;;;;;;;;5050884;28;20230;-79
2022/01/03 06:02:52;;;;;;;30.80;3.77;;;;;;;;;;5047676;28;20654;-79
2022/01/03 06:05:38;;;;;;;24.00;3.63;;;;;;;;;;5052045;28;20282;-79
2022/01/03 06:08:06;;;;;;;28.43;3.57;;;;;;;;;;5037170;28;20219;-79
2022/01/03 06:10:34;;;;;;;27.60;3.50;;;;;;;;;;5042235;28;20282;-79
2022/01/03 06:13:01;;;;;;;31.17;4.33;;;;;;;;;;5044007;28;20283;-79
2022/01/03 06:15:28;;;;;;;30.07;3.90;;;;;;;;;;5045557;28;20307;-79
2022/01/03 06:17:56;;;;;;;29.03;4.37;;;;;;;;;;5049358;28;20283;-80
2022/01/03 06:20:24;;;;;;;23.33;3.97;;;;;;;;;;5043265;28;20714;-77
2022/01/03 06:22:52;;;;;;;26.07;3.73;;;;;;;;;;5047641;28;20631;-78
2022/01/03 06:25:19;;;;;;;19.90;3.63;;;;;;;;;;5048078;28;20236;-78
2022/01/03 06:27:46;;;;;;;28.13;3.57;;;;;;;;;;5041982;28;20315;-77
2022/01/03 06:30:14;;;;;;;23.80;3.50;;;;;;;;;;5045216;28;20550;-78
2022/01/03 06:32:41;;;;;;;25.93;3.13;;;;;;;;;;5045798;28;20298;-78
2022/01/03 06:35:09;;;;;;;31.47;3.73;;;;;;;;;;5036850;28;20230;-76
2022/01/03 06:37:38;;;;;;;27.80;3.73;;;;;;;;;;5050316;28;20195;-77
2022/01/03 06:40:06;;;;;;;26.80;4.27;;;;;;;;;;5042472;28;20293;-78
2022/01/03 06:42:33;;;;;;;26.70;4.73;;;;;;;;;;5042978;28;20191;-78
2022/01/03 06:45:00;;;;;;;23.93;4.53;;;;;;;;;;5051034;28;20286;-77
2022/01/03 06:47:27;;;;;;;31.67;4.67;;;;;;;;;;5051084;28;20306;-79
2022/01/03 06:49:55;;;;;;;23.27;3.70;;;;;;;;;;5050585;28;20310;-78
2022/01/03 06:52:22;;;;;;;23.13;3.50;;;;;;;;;;5050035;28;20230;-78
2022/01/03 06:54:50;;;;;;;29.93;3.87;;;;;;;;;;5051324;28;20239;-78
2022/01/03 06:57:17;;;;;;;19.83;2.97;;;;;;;;;;5051615;28;20215;-78
2022/01/03 06:59:45;;;;;;;24.40;3.30;;;;;;;;;;5051065;28;20645;-78
2022/01/03 07:02:12;;;;;;;21.50;3.17;;;;;;;;;;5050831;28;20679;-78
2022/01/03 07:04:39;;;;;;;25.30;3.90;;;;;;;;;;5037934;28;20532;-78
2022/01/03 07:07:06;;;;;;;21.80;3.60;;;;;;;;;;5057454;28;20261;-78
2022/01/03 07:09:34;;;;;;;25.83;3.97;;;;;;;;;;5071524;28;20630;-78
2022/01/03 07:12:02;;;;;;;29.37;3.93;;;;;;;;;;5053420;28;20203;-78
2022/01/03 07:20:01;;;;;;;26.97;4.27;;;;;;;;;;5031848;28;20202;-78
2022/01/03 07:22:28;;;;;;;24.47;4.07;;;;;;;;;;5031467;28;20215;-78
2022/01/03 07:24:55;;;;;;;31.20;4.70;;;;;;;;;;5040222;28;20282;-78
2022/01/03 07:27:24;;;;;;;26.40;4.03;;;;;;;;;;5042685;28;20244;-78
2022/01/03 07:29:53;;;;;;;34.50;4.37;;;;;;;;;;5030810;28;20291;-78
2022/01/03 07:32:20;;;;;;;30.87;3.90;;;;;;;;;;5051422;28;20206;-78
2022/01/03 07:34:47;;;;;;;32.10;4.67;;;;;;;;;;5055423;28;20605;-78
2022/01/03 07:37:15;;;;;;;31.07;3.83;;;;;;;;;;5048402;28;20721;-79
2022/01/03 07:39:42;;;;;;;23.23;3.33;;;;;;;;;;5035546;28;20312;-78
2022/01/03 07:42:09;;;;;;;29.40;4.10;;;;;;;;;;5035351;28;20227;-78
2022/01/03 07:44:38;;;;;;;28.20;4.20;;;;;;;;;;5035049;28;20292;-78
2022/01/03 07:47:06;;;;;;;27.43;3.80;;;;;;;;;;5034769;28;20605;-78
2022/01/03 07:49:33;;;;;;;22.07;3.63;;;;;;;;;;5041287;28;20191;-78
2022/01/03 07:52:01;;;;;;;28.30;3.57;;;;;;;;;;5054780;28;20203;-78
2022/01/03 07:54:28;;;;;;;27.53;3.80;;;;;;;;;;5053285;28;20231;-78
2022/01/03 07:56:55;;;;;;;28.20;3.87;;;;;;;;;;5038762;28;20217;-79
2022/01/03 07:59:22;;;;;;;30.13;4.40;;;;;;;;;;5035008;28;20295;-78
2022/01/03 08:01:51;;;;;;;26.70;4.50;;;;;;;;;;5035200;28;20663;-78
2022/01/03 08:04:18;;;;;;;29.40;4.03;;;;;;;;;;5052620;28;20203;-78
2022/01/03 08:06:46;;;;;;;26.57;3.97;;;;;;;;;;5055347;28;20234;-78
2022/01/03 08:09:13;;;;;;;26.33;3.20;;;;;;;;;;5055439;28;20251;-79
2022/01/03 08:11:40;;;;;;;23.77;3.47;;;;;;;;;;5054320;28;20283;-78
2022/01/03 08:14:07;;;;;;;26.70;4.13;;;;;;;;;;5054729;28;20291;-78
2022/01/03 08:16:35;;;;;;;22.63;3.40;;;;;;;;;;5055368;28;20299;-78
2022/01/03 08:19:03;;;;;;;28.57;4.60;;;;;;;;;;5054754;28;20204;-78
2022/01/03 08:21:31;;;;;;;25.83;3.63;;;;;;;;;;5054971;28;20227;-79
2022/01/03 08:23:58;;;;;;;26.50;3.87;;;;;;;;;;5054893;28;20235;-78
2022/01/03 08:26:25;;;;;;;23.10;3.50;;;;;;;;;;5052904;28;20723;-78
2022/01/03 08:28:53;;;;;;;22.80;4.23;;;;;;;;;;5044327;28;20951;-78
2022/01/03 08:31:21;;;;;;;25.20;3.20;;;;;;;;;;5043448;28;20291;-79
2022/01/03 08:33:49;;;;;;;28.03;4.67;;;;;;;;;;5054375;28;20687;-78
2022/01/03 08:36:17;;;;;;;26.40;3.73;;;;;;;;;;5053870;28;20329;-78
2022/01/03 08:38:44;;;;;;;23.00;4.00;;;;;;;;;;5054201;28;20286;-78
2022/01/03 08:41:12;;;;;;;25.93;3.30;;;;;;;;;;5053190;28;20295;-78
2022/01/03 08:43:39;;;;;;;28.63;3.57;;;;;;;;;;5034458;28;20200;-78
2022/01/03 08:46:06;;;;;;;23.73;3.20;;;;;;;;;;5041844;28;20242;-78
2022/01/03 08:48:33;;;;;;;26.70;4.00;;;;;;;;;;5053965;28;20238;-78
2022/01/03 08:51:00;;;;;;;26.50;3.90;;;;;;;;;;5037530;28;20288;-78
2022/01/03 08:53:29;;;;;;;28.23;4.03;;;;;;;;;;5038899;28;20287;-78
2022/01/03 08:55:57;;;;;;;22.03;3.70;;;;;;;;;;5033973;28;20586;-78
2022/01/03 08:58:25;;;;;;;23.23;3.10;;;;;;;;;;5033930;28;20291;-78
2022/01/03 09:00:52;;;;;;;20.13;3.40;;;;;;;;;;5033646;28;20315;-78
2022/01/03 09:03:20;;;;;;;22.63;3.80;;;;;;;;;;5033739;28;20232;-78
2022/01/03 09:05:49;;;;;;;20.20;3.17;;;;;;;;;;5034072;28;20243;-78
2022/01/03 09:08:17;;;;;;;27.03;4.27;;;;;;;;;;5033848;28;20220;-79
2022/01/03 09:10:46;;;;;;;24.27;3.83;;;;;;;;;;5033432;28;20207;-78
2022/01/03 09:13:14;;;;;;;32.40;4.40;;;;;;;;;;5033876;28;20238;-78
2022/01/03 09:15:44;;;;;;;26.67;4.13;;;;;;;;;;5048098;28;20210;-78
2022/01/03 09:18:11;;;;;;;22.83;3.43;;;;;;;;;;5053704;28;20249;-78
2022/01/03 09:20:39;;;;;;;28.43;4.23;;;;;;;;;;5052790;28;20231;-78
2022/01/03 09:23:10;;;;;;;31.13;4.10;;;;;;;;;;5053590;28;20286;-78
2022/01/03 09:31:11;;;;;;;22.90;3.10;;;;;;;;;;4991800;28;20229;-78
2022/01/03 09:33:38;;;;;;;24.67;4.47;;;;;;;;;;4991569;28;20255;-78
2022/01/03 09:36:06;;;;;;;21.47;3.47;;;;;;;;;;4991698;28;20289;-78
2022/01/03 09:38:34;;;;;;;27.30;3.60;;;;;;;;;;4976641;28;20289;-78
2022/01/03 09:41:03;;;;;;;30.87;4.90;;;;;;;;;;4972279;28;20210;-78
2022/01/03 09:43:34;;;;;;;28.03;4.17;;;;;;;;;;4989289;28;20288;-78
2022/01/03 09:46:03;;;;;;;27.13;3.73;;;;;;;;;;4991602;28;20629;-78
2022/01/03 09:48:30;;;;;;;31.67;4.47;;;;;;;;;;4991597;28;20773;-78
2022/01/03 09:50:59;;;;;;;23.90;3.80;;;;;;;;;;4991191;28;20289;-78
2022/01/03 09:53:27;;;;;;;31.37;4.30;;;;;;;;;;5007628;28;20259;-78
2022/01/03 09:55:55;;;;;;;23.90;4.00;;;;;;;;;;5004046;28;20229;-79
2022/01/03 09:58:22;;;;;;;27.50;4.70;;;;;;;;;;4991268;28;20231;-78
2022/01/03 10:00:51;;;;;;;28.07;3.90;;;;;;;;;;4990817;28;20328;-78
2022/01/03 10:03:18;;;;;;;25.50;4.00;;;;;;;;;;4990919;28;20202;-78
2022/01/03 10:05:46;;;;;;;27.97;4.37;;;;;;;;;;5030313;28;20231;-78
2022/01/03 10:08:13;;;;;;;24.97;3.87;;;;;;;;;;5052082;28;20806;-78
2022/01/03 10:10:41;;;;;;;23.77;4.37;;;;;;;;;;5052130;28;20299;-78
2022/01/03 10:13:08;;;;;;;20.70;5.70;;;;;;;;;;5052602;28;20306;-78
2022/01/03 10:15:36;;;;;;;25.53;5.10;;;;;;;;;;5051585;28;20291;-78
2022/01/03 10:18:04;;;;;;;23.57;3.77;;;;;;;;;;5033771;28;20291;-78
2022/01/03 10:20:34;;;;;;;29.60;4.27;;;;;;;;;;5040965;28;20679;-78
2022/01/03 10:23:10;;;;;;;22.97;4.00;;;;;;;;;;5031964;28;20207;-78
2022/01/03 10:25:38;;;;;;;26.87;4.40;;;;;;;;;;5037663;28;20278;-78
2022/01/03 10:28:05;;;;;;;22.70;3.57;;;;;;;;;;5045782;28;20301;-78
2022/01/03 10:30:38;;;;;;;25.37;4.03;;;;;;;;;;5051914;28;20676;-78
2022/01/03 10:33:08;;;;;;;22.40;3.23;;;;;;;;;;5051854;28;20574;-78
2022/01/03 10:35:39;;;;;;;23.23;4.07;;;;;;;;;;5051900;28;20230;-78
2022/01/03 10:38:08;;;;;;;21.53;3.87;;;;;;;;;;5051972;28;20226;-78
2022/01/03 10:40:35;;;;;;;27.30;3.27;;;;;;;;;;5052025;28;20203;-79
2022/01/03 10:43:15;;;;;;;27.80;4.20;;;;;;;;;;5051678;28;20291;-78
2022/01/03 10:45:42;;;;;;;20.87;3.50;;;;;;;;;;5051725;28;20207;-78
2022/01/03 10:48:24;;;;;;;19.50;3.70;;;;;;;;;;5052051;28;20259;-78
2022/01/03 10:50:55;;;;;;;20.97;4.20;;;;;;;;;;5051361;28;20623;-78
2022/01/03 10:53:32;;;;;;;21.40;3.93;;;;;;;;;;5051762;28;20722;-78
2022/01/03 10:55:59;;;;;;;24.90;5.23;;;;;;;;;;5052166;28;20671;-78
2022/01/03 10:58:33;;;;;;;20.90;4.83;;;;;;;;;;5044562;28;20279;-79
2022/01/03 11:01:00;;;;;;;22.20;4.17;;;;;;;;;;5044019;28;20256;-78
2022/01/03 11:03:31;;;;;;;21.97;3.60;;;;;;;;;;5046881;28;20269;-78
2022/01/03 11:06:12;;;;;;;24.83;4.87;;;;;;;;;;5039705;28;20243;-79
2022/01/03 11:11:34;;;;;;;20.77;3.70;;;;;;;;;;5031743;28;20264;-78
2022/01/03 11:14:02;;;;;;;19.80;3.67;;;;;;;;;;5038623;28;20232;-78
2022/01/03 11:16:32;;;;;;;16.10;3.13;;;;;;;;;;5049648;28;20719;-79
2022/01/03 11:18:59;;;;;;;24.90;3.90;;;;;;;;;;5031502;28;20196;-78
2022/01/03 11:21:30;;;;;;;24.13;3.43;;;;;;;;;;5031506;28;20291;-79
2022/01/03 11:24:05;;;;;;;20.07;3.53;;;;;;;;;;5031627;28;20200;-79
2022/01/03 11:26:33;;;;;;;15.17;2.90;;;;;;;;;;5031645;28;20204;-79
2022/01/03 11:29:01;;;;;;;17.50;3.17;;;;;;;;;;5034416;28;20212;-79
2022/01/03 11:31:32;;;;;;;15.97;3.13;;;;;;;;;;5051352;28;20206;-79
2022/01/03 11:33:59;;;;;;;17.47;3.07;;;;;;;;;;5051294;28;20199;-79
2022/01/03 11:36:28;;;;;;;18.23;3.13;;;;;;;;;;5049343;28;20286;-79
2022/01/03 11:38:56;;;;;;;16.30;2.67;;;;;;;;;;5031540;28;20213;-79
2022/01/03 11:41:24;;;;;;;19.50;3.03;;;;;;;;;;5032006;28;20204;-78
2022/01/03 11:43:51;;;;;;;16.00;3.00;;;;;;;;;;5051170;28;20290;-79
2022/01/03 11:46:18;;;;;;;15.23;2.63;;;;;;;;;;5050638;28;20245;-79
2022/01/03 11:48:47;;;;;;;13.33;2.43;;;;;;;;;;5051199;28;20259;-79
2022/01/03 11:51:15;;;;;;;20.77;2.87;;;;;;;;;;5050634;28;20211;-79
2022/01/03 11:53:45;;;;;;;16.60;3.00;;;;;;;;;;5041367;28;20214;-79
2022/01/03 11:56:16;;;;;;;14.13;2.67;;;;;;;;;;5038505;28;20660;-79
2022/01/03 12:04:25;;;;;;;15.03;2.87;;;;;;;;;;5150276;27;20219;-78
2022/01/03 12:07:03;;;;;;;14.10;2.47;;;;;;;;;;5151110;27;20224;-78
2022/01/03 12:09:31;;;;;;;15.00;3.00;;;;;;;;;;5150402;27;20237;-78
2022/01/03 12:11:58;;;;;;;16.87;2.77;;;;;;;;;;5150439;27;20227;-78
2022/01/03 12:14:39;;;;;;;13.90;2.53;;;;;;;;;;5150141;27;20239;-78
2022/01/03 12:17:08;;;;;;;11.27;2.30;;;;;;;;;;5150116;27;20275;-78
2022/01/03 12:19:36;;;;;;;11.00;2.40;;;;;;;;;;5149819;27;20771;-79
2022/01/03 12:22:13;;;;;;;11.47;1.87;;;;;;;;;;5149834;27;20200;-78
2022/01/03 12:24:54;;;;;;;10.07;2.20;;;;;;;;;;5150064;27;20286;-78
2022/01/03 12:27:35;;;;;;;13.60;2.43;;;;;;;;;;5150211;27;20264;-78
2022/01/03 12:30:16;;;;;;;14.07;3.87;;;;;;;;;;5149833;27;20200;-78
2022/01/03 12:32:48;;;;;;;10.10;2.70;;;;;;;;;;5149960;27;20196;-78
2022/01/03 12:35:23;;;;;;;12.63;2.17;;;;;;;;;;5150094;27;20280;-78
2022/01/03 12:38:09;;;;;;;9.83;2.80;;;;;;;;;;5129364;28;20228;-78
2022/01/03 12:40:37;;;;;;;11.63;3.67;;;;;;;;;;5129009;27;20220;-78
2022/01/03 12:43:06;;;;;;;14.87;4.03;;;;;;;;;;5144795;27;20197;-78
2022/01/03 12:45:54;;;;;;;7.73;1.93;;;;;;;;;;5149686;27;20605;-78
2022/01/03 12:48:24;;;;;;;10.20;4.00;;;;;;;;;;5142978;27;20254;-78
2022/01/03 12:51:12;;;;;;;12.07;3.80;;;;;;;;;;5149740;27;20616;-79
2022/01/03 12:53:50;;;;;;;8.33;2.43;;;;;;;;;;5149530;27;20249;-78
2022/01/03 12:56:19;;;;;;;11.70;2.37;;;;;;;;;;5139812;27;20216;-78
2022/01/03 12:58:47;;;;;;;9.20;2.23;;;;;;;;;;5129219;27;20219;-78
2022/01/03 13:01:30;;;;;;;8.60;2.30;;;;;;;;;;5128322;27;20323;-78
2022/01/03 13:03:59;;;;;;;8.07;2.00;;;;;;;;;;5128860;27;20349;-78
2022/01/03 13:06:31;;;;;;;7.47;2.17;;;;;;;;;;5128493;27;20236;-78
2022/01/03 13:09:02;;;;;;;5.10;2.20;;;;;;;;;;5129599;27;20701;-78
2022/01/03 13:11:31;;;;;;;5.53;1.90;;;;;;;;;;5135227;27;20189;-78
2022/01/03 13:13:59;;;;;;;6.67;2.73;;;;;;;;;;5134148;27;20204;-79
2022/01/03 13:16:27;;;;;;;5.83;1.80;;;;;;;;;;5117033;27;20240;-78
2022/01/03 13:18:55;;;;;;;9.83;2.37;;;;;;;;;;5130163;27;20228;-78
2022/01/03 13:21:27;;;;;;;4.97;1.97;;;;;;;;;;5114343;28;20225;-78
2022/01/03 13:23:55;;;;;;;6.30;1.97;;;;;;;;;;5114828;27;20284;-78
2022/01/03 13:26:22;;;;;;;6.13;1.53;;;;;;;;;;5114543;28;20233;-78
2022/01/03 13:28:50;;;;;;;4.30;1.60;;;;;;;;;;5115037;28;20202;-78
2022/01/03 13:31:18;;;;;;;6.10;1.83;;;;;;;;;;5133046;27;20228;-78
2022/01/03 13:33:45;;;;;;;4.07;1.60;;;;;;;;;;5122949;27;20302;-78
2022/01/03 13:36:17;;;;;;;7.87;1.90;;;;;;;;;;5114626;28;20293;-78
2022/01/03 13:38:46;;;;;;;3.83;1.40;;;;;;;;;;5131485;27;20225;-78
2022/01/03 13:41:14;;;;;;;4.37;1.70;;;;;;;;;;5130236;27;20334;-78
2022/01/03 13:43:45;;;;;;;3.53;1.40;;;;;;;;;;5114570;28;20236;-78
2022/01/03 13:49:12;;;;;;;2.57;1.40;;;;;;;;;;5134984;27;20662;-78
2022/01/03 13:51:39;;;;;;;3.27;1.80;;;;;;;;;;5134514;27;20724;-78
2022/01/03 13:54:08;;;;;;;3.93;1.40;;;;;;;;;;5134944;27;20293;-78
2022/01/03 13:56:41;;;;;;;4.73;1.60;;;;;;;;;;5134515;27;20244;-78
2022/01/03 13:59:09;;;;;;;3.73;1.73;;;;;;;;;;5134582;27;20201;-78
2022/01/03 14:01:36;;;;;;;4.17;1.70;;;;;;;;;;5133880;27;20315;-78
2022/01/03 14:04:04;;;;;;;3.90;2.03;;;;;;;;;;5134632;27;20284;-78
2022/01/03 14:06:31;;;;;;;3.17;1.63;;;;;;;;;;5134395;27;20291;-78
2022/01/03 14:08:59;;;;;;;4.77;2.00;;;;;;;;;;5134512;27;20544;-78
2022/01/03 14:11:28;;;;;;;4.73;2.80;;;;;;;;;;5115876;27;20296;-78
2022/01/03 14:13:55;;;;;;;4.57;2.63;;;;;;;;;;5113930;28;20247;-78
2022/01/03 14:16:27;;;;;;;6.30;4.10;;;;;;;;;;5115816;27;20233;-78
2022/01/03 14:18:55;;;;;;;7.40;4.13;;;;;;;;;;5128180;27;20651;-78
2022/01/03 14:21:27;;;;;;;5.83;3.70;;;;;;;;;;5113450;28;20721;-78
2022/01/03 14:23:56;;;;;;;5.17;3.10;;;;;;;;;;5124362;27;20280;-78
2022/01/03 14:26:24;;;;;;;4.73;2.37;;;;;;;;;;5117510;27;20201;-78
2022/01/03 14:28:53;;;;;;;3.77;1.93;;;;;;;;;;5116339;27;20261;-78
2022/01/03 14:31:20;;;;;;;3.07;1.83;;;;;;;;;;5134215;27;20296;-78
2022/01/03 14:33:48;;;;;;;2.90;1.40;;;;;;;;;;5133661;27;20193;-78
2022/01/03 14:36:16;;;;;;;3.87;1.57;;;;;;;;;;5133940;27;20287;-79
2022/01/03 14:38:45;;;;;;;2.83;1.40;;;;;;;;;;5121942;27;20660;-78
2022/01/03 14:41:21;;;;;;;3.27;1.53;;;;;;;;;;5113207;28;20650;-79
2022/01/03 14:43:56;;;;;;;3.60;1.57;;;;;;;;;;5113102;27;20231;-78
2022/01/03 14:46:30;;;;;;;3.03;1.50;;;;;;;;;;5124527;27;20231;-78
2022/01/03 14:48:58;;;;;;;3.07;1.40;;;;;;;;;;5121516;27;20196;-78
2022/01/03 14:51:34;;;;;;;2.83;1.33;;;;;;;;;;5114141;27;20225;-79
2022/01/03 14:54:10;;;;;;;7.17;1.67;;;;;;;;;;5113392;27;20253;-79
2022/01/03 14:56:37;;;;;;;5.30;2.03;;;;;;;;;;5117261;27;20360;-79
2022/01/03 14:59:12;;;;;;;2.10;1.40;;;;;;;;;;5119384;27;20276;-79
2022/01/03 15:01:40;;;;;;;4.47;2.10;;;;;;;;;;5133468;27;20221;-79
2022/01/03 15:04:07;;;;;;;4.53;1.90;;;;;;;;;;5122196;27;20288;-79
2022/01/03 15:06:34;;;;;;;5.17;1.80;;;;;;;;;;5116679;27;20295;-78